createdAt,value
2023-02-26T00:00:35.029Z,88.29
2023-02-26T00:03:28.283Z,88.32
2023-02-26T00:06:03.892Z,88.37
2023-02-26T00:08:39.974Z,88.38
2023-02-26T00:11:44.398Z,88.34
2023-02-26T00:14:19.151Z,88.50
2023-02-26T00:16:59.291Z,88.63
2023-02-26T00:19:33.522Z,88.45
2023-02-26T00:22:10.639Z,88.63
2023-02-26T00:24:44.293Z,88.66
2023-02-26T00:27:17.106Z,88.68
2023-02-26T00:29:55.186Z,88.46
2023-02-26T00:32:36.456Z,88.31
2023-02-26T00:35:27.942Z,88.40
2023-02-26T00:38:29.752Z,88.20
2023-02-26T00:41:06.318Z,88.26
2023-02-26T00:43:45.609Z,88.24
2023-02-26T00:46:26.481Z,87.91
2023-02-26T00:49:12.345Z,87.94
2023-02-26T00:51:58.206Z,87.60
2023-02-26T00:54:38.229Z,87.55
2023-02-26T00:57:14.450Z,87.71
2023-02-26T00:59:55.738Z,87.89
2023-02-26T01:02:31.976Z,87.86
2023-02-26T01:05:11.897Z,87.46
2023-02-26T01:07:53.810Z,87.05
2023-02-26T01:10:49.136Z,87.20
2023-02-26T01:13:37.232Z,87.50
2023-02-26T01:16:23.094Z,87.17
2023-02-26T01:19:00.836Z,87.52
2023-02-26T01:21:43.770Z,87.30
2023-02-26T01:24:22.875Z,87.84
2023-02-26T01:26:58.461Z,88.13
2023-02-26T01:29:34.609Z,88.09
2023-02-26T01:32:25.066Z,88.12
2023-02-26T01:35:10.134Z,88.31
2023-02-26T01:37:58.331Z,88.19
2023-02-26T01:40:46.812Z,88.32
2023-02-26T01:43:30.458Z,88.34
2023-02-26T01:46:16.528Z,88.48
2023-02-26T01:48:54.323Z,88.52
2023-02-26T01:51:57.124Z,88.88
2023-02-26T01:54:36.627Z,88.41
2023-02-26T01:57:21.362Z,88.76
2023-02-26T01:59:55.891Z,88.92
2023-02-26T02:02:39.108Z,88.79
2023-02-26T02:05:19.948Z,88.90
2023-02-26T02:08:00.285Z,88.99
2023-02-26T02:10:34.680Z,88.81
2023-02-26T02:13:22.166Z,88.81
2023-02-26T02:16:17.983Z,88.88
2023-02-26T02:19:03.965Z,88.65
2023-02-26T02:22:00.516Z,88.63
2023-02-26T02:24:56.428Z,88.72
2023-02-26T02:27:40.872Z,88.77
2023-02-26T02:30:40.383Z,88.54
2023-02-26T02:33:17.428Z,88.79
2023-02-26T02:36:16.605Z,88.63
2023-02-26T02:38:59.297Z,88.55
2023-02-26T02:41:39.319Z,88.30
2023-02-26T02:44:19.324Z,88.07
2023-02-26T02:47:01.068Z,88.29
2023-02-26T02:49:57.925Z,88.24
2023-02-26T02:52:43.373Z,87.94
2023-02-26T02:55:22.227Z,87.87
2023-02-26T02:58:04.613Z,87.78
2023-02-26T03:00:46.460Z,87.99
2023-02-26T03:03:26.644Z,87.90
2023-02-26T03:05:59.881Z,87.86
2023-02-26T03:08:49.674Z,87.79
2023-02-26T03:11:26.946Z,88.00
2023-02-26T03:14:10.261Z,88.02
2023-02-26T03:17:09.283Z,87.96
2023-02-26T03:19:58.417Z,87.73
2023-02-26T03:22:41.279Z,87.96
2023-02-26T03:25:27.334Z,87.92
2023-02-26T03:28:17.688Z,87.96
2023-02-26T03:30:57.422Z,88.03
2023-02-26T03:33:50.934Z,88.12
2023-02-26T03:36:30.519Z,88.11
2023-02-26T03:39:21.474Z,88.09
2023-02-26T03:42:09.000Z,88.14
2023-02-26T03:44:58.565Z,88.15
2023-02-26T03:47:35.891Z,88.36
2023-02-26T03:50:27.932Z,88.25
2023-02-26T03:53:26.231Z,88.12
2023-02-26T03:56:07.901Z,88.58
2023-02-26T03:59:13.037Z,88.47
2023-02-26T04:02:10.413Z,88.61
2023-02-26T04:04:55.887Z,88.40
2023-02-26T04:07:32.076Z,88.46
2023-02-26T04:10:08.131Z,88.41
2023-02-26T04:12:42.312Z,88.30
2023-02-26T04:15:16.677Z,88.28
2023-02-26T04:17:52.711Z,88.10
2023-02-26T04:20:33.530Z,88.22
2023-02-26T04:23:08.507Z,88.19
2023-02-26T04:25:42.035Z,88.04
2023-02-26T04:28:20.200Z,88.22
2023-02-26T04:30:58.442Z,88.00
2023-02-26T04:33:32.842Z,88.16
2023-02-26T04:36:32.071Z,88.18
2023-02-26T04:39:10.069Z,88.30
2023-02-26T04:41:56.310Z,88.15
2023-02-26T04:44:31.180Z,88.24
2023-02-26T04:47:10.714Z,88.08
2023-02-26T04:49:50.279Z,88.35
2023-02-26T04:52:27.314Z,88.43
2023-02-26T04:55:00.784Z,88.03
2023-02-26T04:57:36.218Z,88.18
2023-02-26T05:00:26.622Z,88.19
2023-02-26T05:03:02.582Z,88.21
2023-02-26T05:05:39.410Z,88.29
2023-02-26T05:08:16.886Z,88.11
2023-02-26T05:10:52.338Z,87.97
2023-02-26T05:13:29.179Z,87.97
2023-02-26T05:16:11.326Z,87.84
2023-02-26T05:18:52.618Z,88.08
2023-02-26T05:21:28.144Z,88.12
2023-02-26T05:24:12.707Z,88.07
2023-02-26T05:26:49.308Z,87.94
2023-02-26T05:29:29.059Z,88.00
2023-02-26T05:32:12.016Z,87.92
2023-02-26T05:34:49.612Z,87.95
2023-02-26T05:37:21.308Z,88.02
2023-02-26T05:39:53.774Z,88.07
2023-02-26T05:42:26.312Z,87.99
2023-02-26T05:45:04.940Z,88.15
2023-02-26T05:47:38.793Z,88.07
2023-02-26T05:50:14.610Z,88.35
2023-02-26T05:52:50.452Z,88.23
2023-02-26T05:55:23.522Z,88.19
2023-02-26T05:58:15.285Z,88.66
2023-02-26T06:00:49.755Z,88.41
2023-02-26T06:03:23.916Z,88.38
2023-02-26T06:06:02.958Z,88.46
2023-02-26T06:08:37.780Z,88.52
2023-02-26T06:11:14.720Z,88.26
2023-02-26T06:14:09.655Z,88.67
2023-02-26T06:16:43.610Z,88.86
2023-02-26T06:19:15.531Z,88.97
2023-02-26T06:21:50.137Z,89.05
2023-02-26T06:24:24.234Z,89.03
2023-02-26T06:26:56.697Z,89.09
2023-02-26T06:29:30.882Z,88.93
2023-02-26T06:32:10.700Z,89.08
2023-02-26T06:34:44.672Z,89.04
2023-02-26T06:37:20.918Z,88.86
2023-02-26T06:39:56.702Z,88.99
2023-02-26T06:42:30.482Z,89.00
2023-02-26T06:45:10.331Z,89.26
2023-02-26T06:47:44.271Z,88.88
2023-02-26T06:50:17.363Z,88.97
2023-02-26T06:52:55.563Z,88.98
2023-02-26T06:55:29.943Z,89.14
2023-02-26T06:58:07.412Z,88.83
2023-02-26T07:00:50.802Z,88.82
2023-02-26T07:03:27.971Z,89.04
2023-02-26T07:06:28.528Z,89.06
2023-02-26T07:09:00.098Z,88.90
2023-02-26T07:11:34.493Z,88.81
2023-02-26T07:14:24.606Z,88.87
2023-02-26T07:17:04.718Z,88.80
2023-02-26T07:19:48.636Z,89.03
2023-02-26T07:22:28.231Z,88.79
2023-02-26T07:25:01.447Z,88.88
2023-02-26T07:27:44.951Z,88.81
2023-02-26T07:30:18.612Z,88.54
2023-02-26T07:32:53.704Z,88.57
2023-02-26T07:35:31.881Z,88.39
2023-02-26T07:38:19.535Z,88.21
2023-02-26T07:41:06.656Z,88.63
2023-02-26T07:43:40.850Z,88.48
2023-02-26T07:46:21.428Z,88.76
2023-02-26T07:49:00.953Z,88.48
2023-02-26T07:51:34.880Z,88.94
2023-02-26T07:54:10.821Z,88.27
2023-02-26T07:56:50.888Z,88.43
2023-02-26T07:59:22.912Z,88.47
2023-02-26T08:02:00.526Z,88.29
2023-02-26T08:04:36.789Z,88.11
2023-02-26T08:07:08.912Z,88.07
2023-02-26T08:09:41.258Z,88.07
2023-02-26T08:12:18.984Z,88.03
2023-02-26T08:15:17.441Z,88.66
2023-02-26T08:17:52.395Z,88.54
2023-02-26T08:20:30.026Z,88.23
2023-02-26T08:23:02.593Z,88.46
2023-02-26T08:25:38.405Z,88.22
2023-02-26T08:28:11.869Z,88.43
2023-02-26T08:30:46.000Z,88.39
2023-02-26T08:33:20.224Z,88.21
2023-02-26T08:35:58.670Z,88.59
2023-02-26T08:38:35.743Z,87.82
2023-02-26T08:41:10.616Z,88.17
2023-02-26T08:43:51.098Z,88.24
2023-02-26T08:46:29.290Z,87.90
2023-02-26T08:49:04.567Z,88.17
2023-02-26T08:51:48.357Z,88.16
2023-02-26T08:54:22.862Z,88.42
2023-02-26T08:56:57.157Z,88.35
2023-02-26T08:59:34.254Z,88.62
2023-02-26T09:02:12.116Z,88.98
2023-02-26T09:04:45.444Z,88.85
2023-02-26T09:07:21.680Z,88.48
2023-02-26T09:09:56.308Z,88.63
2023-02-26T09:12:30.202Z,88.63
2023-02-26T09:15:21.187Z,88.93
2023-02-26T09:17:57.726Z,89.10
2023-02-26T09:20:32.311Z,89.27
2023-02-26T09:23:04.351Z,89.20
2023-02-26T09:25:36.097Z,89.44
2023-02-26T09:28:21.625Z,89.72
2023-02-26T09:30:55.176Z,90.00
2023-02-26T09:33:35.656Z,90.03
2023-02-26T09:36:09.910Z,89.94
2023-02-26T09:39:00.354Z,90.09
2023-02-26T09:41:41.231Z,90.09
2023-02-26T09:44:25.481Z,90.24
2023-02-26T09:47:11.422Z,90.04
2023-02-26T09:49:55.600Z,89.88
2023-02-26T09:52:32.307Z,90.07
2023-02-26T09:55:14.469Z,90.17
2023-02-26T09:57:59.790Z,90.60
2023-02-26T10:00:40.771Z,89.87
2023-02-26T10:03:33.128Z,89.68
2023-02-26T10:06:22.879Z,89.71
2023-02-26T10:09:13.278Z,89.84
2023-02-26T10:11:52.764Z,89.18
2023-02-26T10:14:35.924Z,88.49
2023-02-26T10:17:18.431Z,88.45
2023-02-26T10:20:02.232Z,87.69
2023-02-26T10:22:43.178Z,87.17
2023-02-26T10:25:22.734Z,85.94
2023-02-26T10:28:19.358Z,85.85
2023-02-26T10:31:00.024Z,86.03
2023-02-26T10:33:41.505Z,84.17
2023-02-26T10:36:22.307Z,84.91
2023-02-26T10:39:01.042Z,83.91
2023-02-26T10:41:35.901Z,83.39
2023-02-26T10:44:15.961Z,82.55
2023-02-26T10:47:00.982Z,81.18
2023-02-26T10:49:48.560Z,80.68
2023-02-26T10:52:22.630Z,79.26
2023-02-26T10:55:22.365Z,79.60
2023-02-26T10:57:59.952Z,79.74
2023-02-26T11:00:38.837Z,79.81
2023-02-26T11:03:19.100Z,79.06
2023-02-26T11:05:49.827Z,78.73
2023-02-26T11:08:26.874Z,78.18
2023-02-26T11:11:01.720Z,78.34
2023-02-26T11:13:43.155Z,77.53
2023-02-26T11:17:00.974Z,76.79
2023-02-26T11:19:36.878Z,76.47
2023-02-26T11:22:17.602Z,76.61
2023-02-26T11:24:52.050Z,76.90
2023-02-26T11:27:28.934Z,76.73
2023-02-26T11:30:06.437Z,75.41
2023-02-26T11:32:46.784Z,74.53
2023-02-26T11:35:22.168Z,74.17
2023-02-26T11:38:01.439Z,73.30
2023-02-26T11:40:42.506Z,72.87
2023-02-26T11:43:23.507Z,73.18
2023-02-26T11:45:59.217Z,74.27
2023-02-26T11:48:43.425Z,74.72
2023-02-26T11:51:22.041Z,74.63
2023-02-26T11:54:01.355Z,73.08
2023-02-26T11:56:41.085Z,72.65
2023-02-26T11:59:21.700Z,71.88
2023-02-26T12:01:56.506Z,71.41
2023-02-26T12:04:33.840Z,71.81
2023-02-26T12:07:04.673Z,71.95
2023-02-26T12:09:44.491Z,71.91
2023-02-26T12:12:31.527Z,72.08
2023-02-26T12:15:16.106Z,70.50
2023-02-26T12:18:05.686Z,70.45
2023-02-26T12:20:53.599Z,70.99
2023-02-26T12:23:45.075Z,70.36
2023-02-26T12:26:30.320Z,70.33
2023-02-26T12:29:31.451Z,70.38
2023-02-26T12:32:30.964Z,68.73
2023-02-26T12:35:38.463Z,68.79
2023-02-26T12:38:42.585Z,69.66
2023-02-26T12:41:49.933Z,70.11
2023-02-26T12:44:44.802Z,69.88
2023-02-26T12:47:41.947Z,69.96
2023-02-26T12:50:35.812Z,69.60
2023-02-26T12:53:32.340Z,70.19
2023-02-26T12:56:22.196Z,69.12
2023-02-26T12:59:09.187Z,68.79
2023-02-26T13:02:12.338Z,67.86
2023-02-26T13:05:15.711Z,68.22
2023-02-26T13:08:10.043Z,66.78
2023-02-26T13:10:51.880Z,67.08
2023-02-26T13:13:39.694Z,67.06
2023-02-26T13:16:41.658Z,67.67
2023-02-26T13:19:29.999Z,65.34
2023-02-26T13:22:13.043Z,66.04
2023-02-26T13:24:51.766Z,66.95
2023-02-26T13:27:29.047Z,66.31
2023-02-26T13:30:17.163Z,66.58
2023-02-26T13:32:52.780Z,67.02
2023-02-26T13:35:34.005Z,66.97
2023-02-26T13:38:15.637Z,67.54
2023-02-26T13:40:57.802Z,67.30
2023-02-26T13:43:53.535Z,68.14
2023-02-26T13:46:40.421Z,68.51
2023-02-26T13:49:23.389Z,68.39
2023-02-26T13:52:00.835Z,68.29
2023-02-26T13:54:42.741Z,68.27
2023-02-26T13:57:28.721Z,68.20
2023-02-26T14:00:14.948Z,67.98
2023-02-26T14:02:51.007Z,68.29
2023-02-26T14:05:55.623Z,68.20
2023-02-26T14:08:59.278Z,68.92
2023-02-26T14:11:47.729Z,69.21
2023-02-26T14:14:34.907Z,69.34
2023-02-26T14:17:39.537Z,69.10
2023-02-26T14:20:40.731Z,68.80
2023-02-26T14:23:38.948Z,68.77
2023-02-26T14:26:20.191Z,69.13
2023-02-26T14:29:31.317Z,69.37
2023-02-26T14:32:16.626Z,69.39
2023-02-26T14:34:55.873Z,69.27
2023-02-26T14:37:37.878Z,68.49
2023-02-26T14:40:20.539Z,69.19
2023-02-26T14:42:55.545Z,69.53
2023-02-26T14:45:38.878Z,69.85
2023-02-26T14:48:18.440Z,69.75
2023-02-26T14:51:10.785Z,70.26
2023-02-26T14:54:05.504Z,69.82
2023-02-26T14:57:06.030Z,70.28
2023-02-26T14:59:55.042Z,70.79
2023-02-26T15:02:38.742Z,70.79
2023-02-26T15:05:32.241Z,71.18
2023-02-26T15:08:37.533Z,70.87
2023-02-26T15:11:39.796Z,71.12
2023-02-26T15:15:16.333Z,71.16
2023-02-26T15:18:12.635Z,70.91
2023-02-26T15:21:01.709Z,70.82
2023-02-26T15:23:47.974Z,70.43
2023-02-26T15:26:29.387Z,70.40
2023-02-26T15:29:10.289Z,68.79
2023-02-26T15:31:55.891Z,69.47
2023-02-26T15:34:33.566Z,67.85
2023-02-26T15:37:08.632Z,67.02
2023-02-26T15:39:51.273Z,66.07
2023-02-26T15:42:38.077Z,63.68
2023-02-26T15:45:20.478Z,63.48
2023-02-26T15:48:01.529Z,63.21
2023-02-26T15:50:40.065Z,61.46
2023-02-26T15:53:18.208Z,61.56
2023-02-26T15:55:57.111Z,60.24
2023-02-26T15:59:00.097Z,60.69
2023-02-26T16:01:34.790Z,61.95
2023-02-26T16:04:09.917Z,62.28
2023-02-26T16:06:48.494Z,62.33
2023-02-26T16:09:33.650Z,62.52
2023-02-26T16:12:33.498Z,62.89
2023-02-26T16:15:21.772Z,63.10
2023-02-26T16:18:01.558Z,63.13
2023-02-26T16:20:49.143Z,63.39
2023-02-26T16:23:33.679Z,63.88
2023-02-26T16:26:12.688Z,64.03
2023-02-26T16:28:48.315Z,64.26
2023-02-26T16:31:31.360Z,64.52
2023-02-26T16:34:21.745Z,63.87
2023-02-26T16:36:54.274Z,63.34
2023-02-26T16:39:31.057Z,62.86
2023-02-26T16:42:17.745Z,62.27
2023-02-26T16:45:01.960Z,62.98
2023-02-26T16:47:48.271Z,62.85
2023-02-26T16:50:27.460Z,63.31
2023-02-26T16:53:09.753Z,63.38
2023-02-26T16:55:44.387Z,63.54
2023-02-26T16:58:21.375Z,63.91
2023-02-26T17:01:04.117Z,64.08
2023-02-26T17:03:44.964Z,64.01
2023-02-26T17:06:21.325Z,64.67
2023-02-26T17:08:58.869Z,64.47
2023-02-26T17:11:38.096Z,64.65
2023-02-26T17:14:32.840Z,64.87
2023-02-26T17:17:10.474Z,64.74
2023-02-26T17:19:45.724Z,65.17
2023-02-26T17:22:27.747Z,65.63
2023-02-26T17:25:06.816Z,65.44
2023-02-26T17:27:43.455Z,64.86
2023-02-26T17:30:30.994Z,64.76
2023-02-26T17:33:07.785Z,65.22
2023-02-26T17:35:39.726Z,65.32
2023-02-26T17:38:18.255Z,65.08
2023-02-26T17:40:54.377Z,64.27
2023-02-26T17:43:28.946Z,64.98
2023-02-26T17:46:11.709Z,64.40
2023-02-26T17:48:45.637Z,64.64
2023-02-26T17:51:18.481Z,64.04
2023-02-26T17:53:51.651Z,63.97
2023-02-26T17:56:27.954Z,64.12
2023-02-26T17:59:06.721Z,63.91
2023-02-26T18:01:41.860Z,63.98
2023-02-26T18:04:17.026Z,63.68
2023-02-26T18:06:52.928Z,63.76
2023-02-26T18:09:27.442Z,64.20
2023-02-26T18:11:59.374Z,64.76
2023-02-26T18:14:31.577Z,64.05
2023-02-26T18:17:26.154Z,63.88
2023-02-26T18:19:59.997Z,64.12
2023-02-26T18:22:32.623Z,64.48
2023-02-26T18:25:19.904Z,64.74
2023-02-26T18:27:59.973Z,64.68
2023-02-26T18:30:40.107Z,65.15
2023-02-26T18:33:12.966Z,64.82
2023-02-26T18:35:54.255Z,65.16
2023-02-26T18:38:32.359Z,65.30
2023-02-26T18:41:20.773Z,65.53
2023-02-26T18:43:56.330Z,65.33
2023-02-26T18:46:34.688Z,65.41
2023-02-26T18:49:21.900Z,66.26
2023-02-26T18:52:16.738Z,66.07
2023-02-26T18:55:01.404Z,65.88
2023-02-26T18:57:53.991Z,66.42
2023-02-26T19:00:37.323Z,66.28
2023-02-26T19:03:23.051Z,66.39
2023-02-26T19:06:04.763Z,66.66
2023-02-26T19:08:43.057Z,66.76
2023-02-26T19:11:22.963Z,66.69
2023-02-26T19:13:56.626Z,66.84
2023-02-26T19:16:34.714Z,66.46
2023-02-26T19:19:12.597Z,67.08
2023-02-26T19:21:49.994Z,67.61
2023-02-26T19:24:34.553Z,67.80
2023-02-26T19:27:11.468Z,67.82
2023-02-26T19:29:47.885Z,67.92
2023-02-26T19:32:25.676Z,67.98
2023-02-26T19:35:04.447Z,68.33
2023-02-26T19:37:43.411Z,68.66
2023-02-26T19:40:24.453Z,68.84
2023-02-26T19:43:23.721Z,69.06
2023-02-26T19:46:03.574Z,69.33
2023-02-26T19:48:43.874Z,69.54
2023-02-26T19:51:22.182Z,69.78
2023-02-26T19:54:13.684Z,70.07
2023-02-26T19:56:50.326Z,70.32
2023-02-26T19:59:24.634Z,70.69
2023-02-26T20:02:00.581Z,70.75
2023-02-26T20:04:39.713Z,71.07
2023-02-26T20:07:20.834Z,71.33
2023-02-26T20:09:57.884Z,71.50
2023-02-26T20:12:31.597Z,71.62
2023-02-26T20:15:10.733Z,72.14
2023-02-26T20:17:54.941Z,72.24
2023-02-26T20:20:36.787Z,72.07
2023-02-26T20:23:11.659Z,72.12
2023-02-26T20:25:48.632Z,72.09
2023-02-26T20:28:22.876Z,72.29
2023-02-26T20:30:57.549Z,72.32
2023-02-26T20:33:33.550Z,72.46
2023-02-26T20:36:10.149Z,73.14
2023-02-26T20:38:44.108Z,73.19
2023-02-26T20:41:17.444Z,73.49
2023-02-26T20:43:57.632Z,73.54
2023-02-26T20:46:32.662Z,73.82
2023-02-26T20:49:12.968Z,73.93
2023-02-26T20:51:50.745Z,74.13
2023-02-26T20:54:24.253Z,74.56
2023-02-26T20:56:57.456Z,74.58
2023-02-26T20:59:30.094Z,74.77
2023-02-26T21:02:04.954Z,74.75
2023-02-26T21:04:44.961Z,74.79
2023-02-26T21:07:38.796Z,75.05
2023-02-26T21:10:16.129Z,75.24
2023-02-26T21:12:57.781Z,75.73
2023-02-26T21:15:33.454Z,75.61
2023-02-26T21:18:10.479Z,76.01
2023-02-26T21:20:50.494Z,76.24
2023-02-26T21:23:32.693Z,76.57
2023-02-26T21:26:07.319Z,76.46
2023-02-26T21:28:49.281Z,76.77
2023-02-26T21:31:42.971Z,76.62
2023-02-26T21:34:33.212Z,76.72
2023-02-26T21:37:12.525Z,76.74
2023-02-26T21:39:44.489Z,76.60
2023-02-26T21:42:30.160Z,76.60
2023-02-26T21:45:06.156Z,76.54
2023-02-26T21:47:40.495Z,76.88
2023-02-26T21:50:16.761Z,76.75
2023-02-26T21:52:54.191Z,76.57
2023-02-26T21:55:36.730Z,76.67
2023-02-26T21:58:24.902Z,76.63
2023-02-26T22:01:01.847Z,76.72
2023-02-26T22:03:34.403Z,76.76
2023-02-26T22:06:28.297Z,76.72
2023-02-26T22:09:08.458Z,77.01
2023-02-26T22:11:42.651Z,77.13
2023-02-26T22:14:15.839Z,77.10
2023-02-26T22:16:49.254Z,77.12
2023-02-26T22:19:23.339Z,77.47
2023-02-26T22:21:58.077Z,77.88
2023-02-26T22:24:36.513Z,78.24
2023-02-26T22:27:08.761Z,78.10
2023-02-26T22:29:43.268Z,78.17
2023-02-26T22:32:21.915Z,77.94
2023-02-26T22:34:57.638Z,78.44
2023-02-26T22:37:35.221Z,78.58
2023-02-26T22:40:18.104Z,78.69
2023-02-26T22:43:00.641Z,78.86
2023-02-26T22:45:35.679Z,79.24
2023-02-26T22:48:10.606Z,79.49
2023-02-26T22:50:48.587Z,79.63
2023-02-26T22:53:24.929Z,79.75
2023-02-26T22:55:58.523Z,79.87
2023-02-26T22:58:51.870Z,80.22
2023-02-26T23:01:26.133Z,80.14
2023-02-26T23:04:01.966Z,80.23
2023-02-26T23:06:36.165Z,80.49
2023-02-26T23:09:27.153Z,80.51
2023-02-26T23:12:01.806Z,80.52
2023-02-26T23:14:38.515Z,80.38
2023-02-26T23:17:16.454Z,80.43
2023-02-26T23:19:55.125Z,80.60
2023-02-26T23:22:41.473Z,80.76
2023-02-26T23:25:17.111Z,80.81
2023-02-26T23:27:49.806Z,80.76
2023-02-26T23:30:32.228Z,80.76
2023-02-26T23:33:10.654Z,80.60
2023-02-26T23:36:04.002Z,80.93
2023-02-26T23:38:40.886Z,81.25
2023-02-26T23:41:21.195Z,81.27
2023-02-26T23:43:55.480Z,81.41
2023-02-26T23:46:36.211Z,81.53
2023-02-26T23:49:11.313Z,81.54
2023-02-26T23:51:52.522Z,81.60
2023-02-26T23:54:26.846Z,81.38
2023-02-26T23:57:00.539Z,81.35
2023-02-26T23:59:41.913Z,81.50
